Terminal Aerodrome Forecast
Issued by NWS Cleveland, OH

Home | Current Version | Previous Version | Graphics & Text | Print | Product List | Glossary On
Versions: 1 2 3 4 5 6 7 8 9 10 11 12 13 14 15 16 17 18 19 20 21 22 23 24 25 26 27 28 29 30 31 32 33
000
FTUS41 KCLE 201100
TAFCLE
TAF
KCLE 201120Z 2012/2118 18008KT P6SM SCT035 BKN150
     FM201600 24010KT P6SM VCTS BKN035CB OVC150
     FM202100 24006KT P6SM BKN040
     FM211000 22004KT 4SM BR FEW015 SCT100=

USA.gov is the U.S. government's official web portal to all federal, state and local government web resources and services.